createdAt,value
2023-03-31T00:00:12.099Z,69.35
2023-03-31T00:02:41.854Z,69.46
2023-03-31T00:05:10.152Z,69.36
2023-03-31T00:07:38.239Z,69.59
2023-03-31T00:10:17.104Z,69.44
2023-03-31T00:12:45.047Z,69.68
2023-03-31T00:15:11.859Z,69.54
2023-03-31T00:17:38.545Z,69.42
2023-03-31T00:20:06.197Z,69.62
2023-03-31T00:22:32.879Z,69.36
2023-03-31T00:24:59.556Z,69.24
2023-03-31T00:27:28.338Z,69.56
2023-03-31T00:29:55.742Z,69.41
2023-03-31T00:32:22.677Z,69.04
2023-03-31T00:34:49.352Z,69.47
2023-03-31T00:37:16.101Z,69.39
2023-03-31T00:39:43.400Z,69.61
2023-03-31T00:42:13.197Z,69.37
2023-03-31T00:45:31.816Z,69.33
2023-03-31T00:48:11.340Z,69.44
2023-03-31T00:50:49.026Z,69.37
2023-03-31T00:53:18.503Z,69.36
2023-03-31T00:55:53.024Z,69.33
2023-03-31T00:58:21.902Z,69.33
2023-03-31T01:00:52.984Z,69.44
2023-03-31T01:03:22.883Z,69.50
2023-03-31T01:05:54.937Z,69.44
2023-03-31T01:08:26.296Z,69.55
2023-03-31T01:11:03.393Z,69.32
2023-03-31T01:13:32.102Z,69.76
2023-03-31T01:15:58.791Z,69.45
2023-03-31T01:18:25.782Z,69.61
2023-03-31T01:21:10.764Z,69.53
2023-03-31T01:24:05.302Z,69.70
2023-03-31T01:26:47.054Z,69.36
2023-03-31T01:29:41.517Z,69.48
2023-03-31T01:32:55.518Z,69.39
2023-03-31T01:36:01.501Z,69.44
2023-03-31T01:39:07.271Z,69.41
2023-03-31T01:41:49.152Z,69.19
2023-03-31T01:44:18.824Z,69.45
2023-03-31T01:47:07.054Z,69.31
2023-03-31T01:49:57.460Z,69.29
2023-03-31T01:52:30.285Z,69.14
2023-03-31T01:55:34.268Z,69.30
2023-03-31T01:58:08.572Z,69.33
2023-03-31T02:00:42.170Z,69.53
2023-03-31T02:03:19.405Z,69.26
2023-03-31T02:06:03.122Z,69.23
2023-03-31T02:08:38.198Z,69.48
2023-03-31T02:11:05.000Z,69.35
2023-03-31T02:13:34.630Z,69.46
2023-03-31T02:16:07.446Z,69.35
2023-03-31T02:18:38.376Z,69.31
2023-03-31T02:21:08.107Z,69.22
2023-03-31T02:23:37.917Z,69.48
2023-03-31T02:26:13.549Z,69.48
2023-03-31T02:28:40.858Z,69.13
2023-03-31T02:31:26.006Z,69.44
2023-03-31T02:33:53.325Z,69.37
2023-03-31T02:36:21.632Z,69.24
2023-03-31T02:39:08.601Z,69.42
2023-03-31T02:41:35.966Z,69.35
2023-03-31T02:44:03.001Z,69.10
2023-03-31T02:46:30.377Z,69.33
2023-03-31T02:49:01.282Z,69.31
2023-03-31T02:51:46.931Z,69.30
2023-03-31T02:54:19.246Z,69.04
2023-03-31T02:57:02.352Z,69.31
2023-03-31T02:59:44.278Z,69.25
2023-03-31T03:02:34.980Z,69.03
2023-03-31T03:05:08.976Z,68.95
2023-03-31T03:07:56.013Z,69.20
2023-03-31T03:10:37.781Z,69.16
2023-03-31T03:13:33.539Z,69.05
2023-03-31T03:16:14.070Z,69.10
2023-03-31T03:18:40.950Z,69.27
2023-03-31T03:21:07.597Z,69.42
2023-03-31T03:23:34.264Z,69.33
2023-03-31T03:26:01.234Z,69.08
2023-03-31T03:28:27.931Z,69.39
2023-03-31T03:30:54.642Z,69.28
2023-03-31T03:33:25.089Z,69.02
2023-03-31T03:35:52.006Z,69.05
2023-03-31T03:38:18.728Z,69.26
2023-03-31T03:40:45.988Z,69.28
2023-03-31T03:43:13.322Z,69.23
2023-03-31T03:45:39.956Z,69.24
2023-03-31T03:48:06.872Z,69.01
2023-03-31T03:50:36.547Z,68.82
2023-03-31T03:53:03.250Z,69.00
2023-03-31T03:55:29.924Z,68.83
2023-03-31T03:57:56.609Z,69.29
2023-03-31T04:00:23.566Z,69.24
2023-03-31T04:02:50.303Z,69.17
2023-03-31T04:05:17.298Z,69.12
2023-03-31T04:07:43.958Z,68.96
2023-03-31T04:10:11.026Z,69.21
2023-03-31T04:12:37.902Z,69.21
2023-03-31T04:15:08.105Z,69.11
2023-03-31T04:17:35.066Z,68.90
2023-03-31T04:20:13.593Z,69.26
2023-03-31T04:22:47.034Z,68.93
2023-03-31T04:25:17.358Z,69.15
2023-03-31T04:27:55.860Z,68.99
2023-03-31T04:30:24.660Z,69.00
2023-03-31T04:33:04.200Z,69.10
2023-03-31T04:35:52.712Z,69.14
2023-03-31T04:38:22.061Z,69.09
2023-03-31T04:40:51.031Z,69.10
2023-03-31T04:43:19.268Z,69.00
2023-03-31T04:45:46.132Z,69.02
2023-03-31T04:48:13.307Z,68.94
2023-03-31T04:50:40.095Z,68.96
2023-03-31T04:53:07.136Z,69.04
2023-03-31T04:55:34.207Z,68.93
2023-03-31T04:58:01.045Z,68.83
2023-03-31T05:00:28.973Z,69.15
2023-03-31T05:02:57.173Z,68.92
2023-03-31T05:05:23.986Z,69.02
2023-03-31T05:07:50.903Z,69.20
2023-03-31T05:10:17.695Z,69.34
2023-03-31T05:12:44.711Z,69.12
2023-03-31T05:15:11.645Z,69.08
2023-03-31T05:17:38.411Z,69.31
2023-03-31T05:20:06.962Z,69.38
2023-03-31T05:22:42.573Z,68.89
2023-03-31T05:25:11.929Z,69.00
2023-03-31T05:27:38.675Z,69.16
2023-03-31T05:30:06.174Z,69.19
2023-03-31T05:32:32.912Z,68.89
2023-03-31T05:34:59.689Z,68.85
2023-03-31T05:37:27.367Z,68.92
2023-03-31T05:39:54.077Z,69.14
2023-03-31T05:42:21.251Z,69.10
2023-03-31T05:44:48.026Z,69.01
2023-03-31T05:47:14.854Z,68.99
2023-03-31T05:49:41.592Z,69.06
2023-03-31T05:52:09.239Z,68.91
2023-03-31T05:54:36.002Z,69.22
2023-03-31T05:57:03.330Z,69.02
2023-03-31T05:59:30.171Z,69.15
2023-03-31T06:01:56.956Z,69.38
2023-03-31T06:04:24.546Z,69.10
2023-03-31T06:06:51.324Z,69.29
2023-03-31T06:09:18.484Z,69.22
2023-03-31T06:11:45.330Z,69.04
2023-03-31T06:14:12.143Z,69.17
2023-03-31T06:16:39.427Z,68.97
2023-03-31T06:19:06.122Z,68.88
2023-03-31T06:21:33.117Z,68.94
2023-03-31T06:24:00.746Z,68.99
2023-03-31T06:26:27.960Z,69.13
2023-03-31T06:28:54.835Z,68.97
2023-03-31T06:31:24.062Z,68.97
2023-03-31T06:33:51.899Z,69.24
2023-03-31T06:36:21.487Z,69.23
2023-03-31T06:38:49.344Z,68.89
2023-03-31T06:41:17.582Z,69.22
2023-03-31T06:43:44.868Z,68.89
2023-03-31T06:46:14.329Z,69.00
2023-03-31T06:48:42.071Z,68.96
2023-03-31T06:51:08.969Z,68.70
2023-03-31T06:53:36.734Z,68.91
2023-03-31T06:56:04.841Z,68.81
2023-03-31T06:58:31.956Z,69.04
2023-03-31T07:00:59.438Z,69.04
2023-03-31T07:03:26.432Z,68.95
2023-03-31T07:05:54.680Z,69.01
2023-03-31T07:08:22.795Z,68.84
2023-03-31T07:10:54.085Z,69.08
2023-03-31T07:13:21.005Z,69.24
2023-03-31T07:15:48.909Z,68.93
2023-03-31T07:18:16.702Z,69.01
2023-03-31T07:20:44.181Z,69.29
2023-03-31T07:23:10.988Z,68.93
2023-03-31T07:25:37.678Z,69.04
2023-03-31T07:28:06.061Z,69.08
2023-03-31T07:30:33.399Z,68.88
2023-03-31T07:33:00.649Z,68.70
2023-03-31T07:35:27.471Z,68.80
2023-03-31T07:37:57.996Z,68.69
2023-03-31T07:40:27.170Z,68.54
2023-03-31T07:42:54.627Z,68.51
2023-03-31T07:45:23.464Z,68.52
2023-03-31T07:47:50.577Z,68.45
2023-03-31T07:50:18.162Z,68.48
2023-03-31T07:52:46.898Z,68.65
2023-03-31T07:55:13.975Z,68.18
2023-03-31T07:57:41.593Z,68.03
2023-03-31T08:00:10.959Z,68.52
2023-03-31T08:02:38.140Z,68.30
2023-03-31T08:05:07.323Z,68.07
2023-03-31T08:07:35.762Z,68.12
2023-03-31T08:10:06.016Z,67.76
2023-03-31T08:12:32.894Z,68.23
2023-03-31T08:14:59.611Z,68.05
2023-03-31T08:17:28.875Z,68.27
2023-03-31T08:19:55.555Z,68.28
2023-03-31T08:22:23.509Z,68.23
2023-03-31T08:24:50.295Z,67.89
2023-03-31T08:27:17.181Z,67.79
2023-03-31T08:29:43.935Z,67.94
2023-03-31T08:32:10.745Z,67.91
2023-03-31T08:34:38.176Z,67.42
2023-03-31T08:37:05.927Z,67.49
2023-03-31T08:39:34.223Z,66.95
2023-03-31T08:42:07.612Z,66.97
2023-03-31T08:44:45.816Z,66.83
2023-03-31T08:47:18.236Z,66.93
2023-03-31T09:01:09.575Z,69.71
2023-03-31T09:04:12.459Z,69.06
2023-03-31T09:07:04.914Z,68.67
2023-03-31T09:09:56.408Z,67.48
2023-03-31T09:12:23.030Z,66.80
2023-03-31T09:15:38.978Z,66.26
2023-03-31T09:18:30.110Z,66.00
2023-03-31T09:21:23.117Z,65.51
2023-03-31T09:24:13.145Z,65.44
2023-03-31T09:26:46.785Z,65.41
2023-03-31T09:29:21.107Z,65.28
2023-03-31T09:31:47.862Z,65.36
2023-03-31T09:34:19.367Z,65.01
2023-03-31T09:36:46.437Z,65.15
2023-03-31T09:39:15.152Z,65.17
2023-03-31T09:41:49.468Z,64.95
2023-03-31T09:44:23.989Z,64.23
2023-03-31T09:46:51.924Z,64.22
2023-03-31T09:49:21.819Z,64.08
2023-03-31T09:51:56.869Z,63.74
2023-03-31T09:54:29.476Z,63.56
2023-03-31T09:56:56.174Z,63.31
2023-03-31T09:59:31.750Z,63.23
2023-03-31T10:02:02.746Z,63.12
2023-03-31T10:04:33.974Z,62.91
2023-03-31T10:07:04.172Z,63.36
2023-03-31T10:09:33.669Z,62.61
2023-03-31T10:12:08.325Z,62.43
2023-03-31T10:14:45.995Z,62.38
2023-03-31T10:17:18.658Z,62.34
2023-03-31T10:19:51.351Z,62.48
2023-03-31T10:22:21.263Z,62.46
2023-03-31T10:24:49.994Z,62.11
2023-03-31T10:27:28.786Z,61.95
2023-03-31T10:30:01.421Z,61.39
2023-03-31T10:32:38.351Z,61.08
2023-03-31T10:35:43.614Z,60.97
2023-03-31T10:38:27.930Z,61.30
2023-03-31T10:40:57.567Z,61.15
2023-03-31T10:43:28.978Z,61.03
2023-03-31T10:46:02.997Z,60.66
2023-03-31T10:48:36.066Z,61.17
2023-03-31T10:51:17.594Z,61.00
2023-03-31T10:53:47.142Z,61.33
2023-03-31T10:56:35.104Z,60.91
2023-03-31T10:59:20.491Z,60.83
2023-03-31T11:02:21.247Z,61.57
2023-03-31T11:05:00.137Z,60.92
2023-03-31T11:07:45.666Z,61.46
2023-03-31T11:10:51.296Z,60.54
2023-03-31T11:13:40.510Z,60.02
2023-03-31T11:16:13.038Z,59.92
2023-03-31T11:18:50.607Z,59.89
2023-03-31T11:21:28.054Z,59.44
2023-03-31T11:24:22.277Z,59.20
2023-03-31T11:27:01.686Z,58.33
2023-03-31T11:29:57.723Z,57.78
2023-03-31T11:32:41.761Z,58.21
2023-03-31T11:35:21.409Z,58.09
2023-03-31T11:38:11.789Z,57.78
2023-03-31T11:40:58.271Z,57.69
2023-03-31T11:43:30.017Z,57.81
2023-03-31T11:46:12.388Z,57.16
2023-03-31T11:48:46.185Z,57.01
2023-03-31T11:51:35.341Z,56.63
2023-03-31T11:54:12.131Z,56.39
2023-03-31T11:56:41.256Z,56.27
2023-03-31T11:59:16.008Z,56.33
2023-03-31T12:01:51.558Z,56.05
2023-03-31T12:04:33.797Z,56.46
2023-03-31T12:07:18.739Z,55.93
2023-03-31T12:10:05.592Z,55.30
2023-03-31T12:12:39.711Z,55.41
2023-03-31T12:15:19.406Z,54.62
2023-03-31T12:17:51.126Z,55.13
2023-03-31T12:20:41.382Z,54.53
2023-03-31T12:23:17.535Z,54.61
2023-03-31T12:25:52.538Z,54.64
2023-03-31T12:28:20.441Z,54.74
2023-03-31T12:30:48.252Z,55.03
2023-03-31T12:33:37.508Z,54.26
2023-03-31T12:36:16.589Z,54.54
2023-03-31T12:39:08.872Z,54.33
2023-03-31T12:41:54.272Z,53.94
2023-03-31T12:44:29.958Z,52.82
2023-03-31T12:47:33.832Z,53.25
2023-03-31T12:50:16.491Z,53.30
2023-03-31T12:53:19.917Z,53.15
2023-03-31T12:55:54.295Z,53.02
2023-03-31T12:58:34.957Z,53.40
2023-03-31T13:01:06.623Z,52.88
2023-03-31T13:03:53.988Z,52.40
2023-03-31T13:06:29.804Z,52.82
2023-03-31T13:09:00.935Z,53.13
2023-03-31T13:11:33.298Z,53.05
2023-03-31T13:14:02.587Z,52.37
2023-03-31T13:16:35.095Z,52.11
2023-03-31T13:19:02.083Z,51.75
2023-03-31T13:21:28.860Z,51.73
2023-03-31T13:24:01.518Z,51.43
2023-03-31T13:26:34.253Z,51.13
2023-03-31T13:29:14.504Z,51.45
2023-03-31T13:32:02.881Z,50.46
2023-03-31T13:34:51.284Z,50.85
2023-03-31T13:37:45.261Z,51.19
2023-03-31T13:40:33.395Z,51.02
2023-03-31T13:43:32.506Z,50.73
2023-03-31T13:46:27.106Z,50.41
2023-03-31T13:49:22.194Z,50.48
2023-03-31T13:52:13.441Z,50.62
2023-03-31T13:55:06.091Z,50.81
2023-03-31T13:57:38.822Z,50.27
2023-03-31T14:00:43.000Z,49.94
2023-03-31T14:03:28.741Z,50.20
2023-03-31T14:06:02.357Z,50.13
2023-03-31T14:08:44.238Z,50.35
2023-03-31T14:11:25.690Z,50.41
2023-03-31T14:14:15.746Z,50.12
2023-03-31T14:16:45.803Z,50.51
2023-03-31T14:19:29.281Z,50.20
2023-03-31T14:22:08.116Z,50.54
2023-03-31T14:25:01.245Z,50.12
2023-03-31T14:27:58.512Z,49.87
2023-03-31T14:30:38.537Z,50.07
2023-03-31T14:33:40.925Z,50.35
2023-03-31T14:36:22.363Z,50.10
2023-03-31T14:38:49.056Z,50.43
2023-03-31T14:41:21.208Z,50.29
2023-03-31T14:43:51.401Z,50.25
2023-03-31T14:46:22.252Z,50.23
2023-03-31T14:48:51.281Z,50.52
2023-03-31T14:51:30.867Z,50.24
2023-03-31T14:54:01.749Z,50.33
2023-03-31T14:56:40.608Z,50.51
2023-03-31T14:59:08.549Z,50.25
2023-03-31T15:01:38.463Z,50.16
2023-03-31T15:04:11.324Z,50.14
2023-03-31T15:06:40.029Z,50.23
2023-03-31T15:09:07.987Z,49.76
2023-03-31T15:11:35.153Z,49.58
2023-03-31T15:14:05.579Z,49.59
2023-03-31T15:16:43.335Z,49.94
2023-03-31T15:19:24.953Z,49.65
2023-03-31T15:22:02.126Z,49.82
2023-03-31T15:24:29.872Z,50.03
2023-03-31T15:27:06.237Z,50.27
2023-03-31T15:29:41.564Z,50.27
2023-03-31T15:32:18.844Z,49.81
2023-03-31T15:34:46.590Z,49.88
2023-03-31T15:37:13.525Z,49.94
2023-03-31T15:39:47.394Z,49.61
2023-03-31T15:42:14.364Z,49.66
2023-03-31T15:44:53.720Z,49.56
2023-03-31T15:47:25.354Z,49.76
2023-03-31T15:50:13.272Z,49.90
2023-03-31T15:52:47.989Z,49.59
2023-03-31T15:55:23.785Z,49.49
2023-03-31T15:57:51.865Z,49.46
2023-03-31T16:00:33.566Z,49.59
2023-03-31T16:03:04.067Z,49.26
2023-03-31T16:05:53.668Z,49.52
2023-03-31T16:08:37.573Z,49.39
2023-03-31T16:11:13.534Z,49.79
2023-03-31T16:13:44.759Z,49.64
2023-03-31T16:16:15.623Z,49.64
2023-03-31T16:19:04.147Z,49.79
2023-03-31T16:21:40.186Z,49.82
2023-03-31T16:24:07.244Z,49.84
2023-03-31T16:26:34.583Z,49.73
2023-03-31T16:29:01.576Z,49.58
2023-03-31T16:31:39.561Z,49.83
2023-03-31T16:34:11.167Z,49.66
2023-03-31T16:36:37.982Z,50.06
2023-03-31T16:39:05.928Z,50.15
2023-03-31T16:41:33.940Z,50.41
2023-03-31T16:44:00.719Z,50.23
2023-03-31T16:46:28.044Z,50.24
2023-03-31T16:48:54.805Z,50.11
2023-03-31T16:51:21.819Z,50.35
2023-03-31T16:53:48.656Z,50.56
2023-03-31T16:56:16.368Z,50.05
2023-03-31T16:58:43.828Z,50.29
2023-03-31T17:01:11.238Z,50.36
2023-03-31T17:03:41.625Z,50.76
2023-03-31T17:06:12.491Z,50.83
2023-03-31T17:08:40.073Z,50.54
2023-03-31T17:11:14.469Z,51.02
2023-03-31T17:13:42.648Z,50.82
2023-03-31T17:16:20.356Z,50.68
2023-03-31T17:18:51.238Z,50.94
2023-03-31T17:21:22.004Z,50.83
2023-03-31T17:23:49.895Z,51.03
2023-03-31T17:26:18.564Z,50.83
2023-03-31T17:28:45.602Z,51.02
2023-03-31T17:31:14.088Z,51.11
2023-03-31T17:33:41.960Z,51.38
2023-03-31T17:36:08.755Z,51.11
2023-03-31T17:38:35.742Z,51.26
2023-03-31T17:41:06.037Z,50.91
2023-03-31T17:43:33.482Z,51.34
2023-03-31T17:46:05.247Z,51.23
2023-03-31T17:48:34.183Z,51.20
2023-03-31T17:51:08.880Z,51.48
2023-03-31T17:53:36.420Z,51.46
2023-03-31T17:56:04.413Z,51.38
2023-03-31T17:58:32.349Z,51.67
2023-03-31T18:00:59.372Z,51.61
2023-03-31T18:03:29.498Z,51.44
2023-03-31T18:05:56.470Z,51.59
2023-03-31T18:08:23.185Z,51.58
2023-03-31T18:10:50.612Z,51.82
2023-03-31T18:13:18.676Z,51.60
2023-03-31T18:15:52.527Z,51.88
2023-03-31T18:18:20.782Z,52.08
2023-03-31T18:20:47.588Z,51.86
2023-03-31T18:23:14.950Z,51.92
2023-03-31T18:25:46.299Z,51.83
2023-03-31T18:28:18.264Z,52.28
2023-03-31T18:30:46.375Z,52.65
2023-03-31T18:33:13.394Z,52.34
2023-03-31T18:35:40.480Z,52.71
2023-03-31T18:38:07.841Z,52.55
2023-03-31T18:40:34.685Z,52.50
2023-03-31T18:43:02.748Z,52.54
2023-03-31T18:45:30.774Z,52.64
2023-03-31T18:47:57.959Z,52.47
2023-03-31T18:50:25.945Z,52.57
2023-03-31T18:52:54.548Z,52.72
2023-03-31T18:55:22.257Z,52.34
2023-03-31T18:57:49.352Z,52.87
2023-03-31T19:00:17.359Z,52.85
2023-03-31T19:02:44.240Z,52.86
2023-03-31T19:05:11.174Z,53.03
2023-03-31T19:07:38.108Z,52.86
2023-03-31T19:10:05.121Z,53.06
2023-03-31T19:12:31.774Z,52.77
2023-03-31T19:14:58.571Z,53.42
2023-03-31T19:17:25.774Z,53.29
2023-03-31T19:19:52.722Z,53.18
2023-03-31T19:22:19.755Z,53.47
2023-03-31T19:24:46.495Z,53.38
2023-03-31T19:27:13.221Z,53.35
2023-03-31T19:29:39.935Z,53.42
2023-03-31T19:32:07.076Z,53.47
2023-03-31T19:34:34.281Z,53.45
2023-03-31T19:37:02.173Z,53.46
2023-03-31T19:39:29.080Z,53.40
2023-03-31T19:41:55.816Z,53.37
2023-03-31T19:44:22.590Z,53.46
2023-03-31T19:46:49.367Z,53.86
2023-03-31T19:49:16.547Z,53.65
2023-03-31T19:51:43.328Z,53.78
2023-03-31T19:54:11.790Z,53.78
2023-03-31T19:56:38.979Z,53.96
2023-03-31T19:59:06.187Z,53.77
2023-03-31T20:01:33.270Z,53.72
2023-03-31T20:04:00.316Z,54.00
2023-03-31T20:06:29.095Z,53.96
2023-03-31T20:08:58.868Z,54.19
2023-03-31T20:11:27.034Z,54.18
2023-03-31T20:13:54.739Z,53.95
2023-03-31T20:16:23.791Z,54.24
2023-03-31T20:18:58.789Z,54.34
2023-03-31T20:21:27.920Z,54.06
2023-03-31T20:23:56.449Z,54.30
2023-03-31T20:26:26.500Z,54.60
2023-03-31T20:28:54.974Z,54.67
2023-03-31T20:31:26.854Z,54.34
2023-03-31T20:33:54.792Z,54.88
2023-03-31T20:36:29.290Z,54.56
2023-03-31T20:38:57.310Z,54.95
2023-03-31T20:41:26.911Z,54.68
2023-03-31T20:43:54.706Z,54.76
2023-03-31T20:46:22.449Z,54.65
2023-03-31T20:48:51.487Z,55.19
2023-03-31T20:51:22.055Z,54.74
2023-03-31T20:53:52.838Z,54.88
2023-03-31T20:56:21.150Z,54.92
2023-03-31T20:58:49.197Z,54.75
2023-03-31T21:01:17.955Z,55.08
2023-03-31T21:03:44.959Z,55.52
2023-03-31T21:06:14.281Z,55.06
2023-03-31T21:08:43.217Z,55.27
2023-03-31T21:11:10.101Z,55.96
2023-03-31T21:13:37.191Z,55.31
2023-03-31T21:16:04.852Z,55.46
2023-03-31T21:18:33.985Z,55.75
2023-03-31T21:21:07.221Z,55.79
2023-03-31T21:23:34.070Z,56.04
2023-03-31T21:26:02.658Z,55.81
2023-03-31T21:28:31.925Z,55.77
2023-03-31T21:31:04.865Z,55.87
2023-03-31T21:33:32.804Z,56.33
2023-03-31T21:35:59.551Z,56.08
2023-03-31T21:38:27.998Z,56.45
2023-03-31T21:40:57.706Z,56.19
2023-03-31T21:43:25.940Z,56.18
2023-03-31T21:45:57.278Z,56.43
2023-03-31T21:48:26.353Z,56.25
2023-03-31T21:50:54.902Z,56.56
2023-03-31T21:53:23.069Z,56.50
2023-03-31T21:55:55.603Z,56.68
2023-03-31T21:58:28.757Z,56.73
2023-03-31T22:00:58.046Z,57.46
2023-03-31T22:03:29.220Z,57.32
2023-03-31T22:05:56.999Z,56.85
2023-03-31T22:08:24.445Z,57.12
2023-03-31T22:10:52.162Z,57.58
2023-03-31T22:13:21.230Z,57.12
2023-03-31T22:15:48.020Z,57.22
2023-03-31T22:18:14.871Z,57.79
2023-03-31T22:20:42.028Z,57.55
2023-03-31T22:23:10.284Z,58.05
2023-03-31T22:25:37.266Z,58.11
2023-03-31T22:28:06.970Z,58.12
2023-03-31T22:30:34.061Z,57.87
2023-03-31T22:33:01.037Z,57.76
2023-03-31T22:35:28.424Z,58.16
2023-03-31T22:37:55.121Z,58.51
2023-03-31T22:40:21.969Z,58.25
2023-03-31T22:42:48.645Z,58.69
2023-03-31T22:45:15.763Z,58.67
2023-03-31T22:47:42.658Z,58.24
2023-03-31T22:50:11.268Z,58.67
2023-03-31T22:52:38.271Z,58.60
2023-03-31T22:55:06.327Z,58.58
2023-03-31T22:57:33.839Z,58.42
2023-03-31T23:00:00.877Z,58.79
2023-03-31T23:02:27.647Z,59.10
2023-03-31T23:04:54.378Z,58.91
2023-03-31T23:07:22.101Z,58.95
2023-03-31T23:09:48.981Z,58.55
2023-03-31T23:12:16.048Z,58.81
2023-03-31T23:14:42.779Z,58.78
2023-03-31T23:17:09.464Z,59.07
2023-03-31T23:19:37.884Z,59.09
2023-03-31T23:22:05.828Z,59.21
2023-03-31T23:24:32.557Z,59.23
2023-03-31T23:26:59.224Z,59.62
2023-03-31T23:29:25.955Z,59.68
2023-03-31T23:31:52.756Z,59.50
2023-03-31T23:34:19.430Z,59.61
2023-03-31T23:36:46.186Z,59.38
2023-03-31T23:39:12.821Z,59.90
2023-03-31T23:41:39.748Z,59.98
2023-03-31T23:44:06.880Z,59.77
2023-03-31T23:46:33.875Z,59.78
2023-03-31T23:49:02.831Z,59.68
2023-03-31T23:51:29.630Z,60.02
2023-03-31T23:53:56.428Z,59.87
2023-03-31T23:56:23.470Z,59.72
2023-03-31T23:58:50.192Z,60.07
